sensor_id;sensor_type;location;lat;lon;timestamp;P1;P2;P0
57049;PMS7003;42935;50.966;16.992;2023-03-23T00:00:07;48;38;25
57049;PMS7003;42935;50.966;16.992;2023-03-23T00:03:27;46;35;23
57049;PMS7003;42935;50.966;16.992;2023-03-23T00:06:50;47;37;23
57049;PMS7003;42935;50.966;16.992;2023-03-23T00:10:11;47;37;25
57049;PMS7003;42935;50.966;16.992;2023-03-23T00:13:36;45;36;23
57049;PMS7003;42935;50.966;16.992;2023-03-23T00:17:00;46;36;23
57049;PMS7003;42935;50.966;16.992;2023-03-23T00:20:24;48;36;23
57049;PMS7003;42935;50.966;16.992;2023-03-23T00:23:51;43;33;23
57049;PMS7003;42935;50.966;16.992;2023-03-23T00:27:09;43;34;23
57049;PMS7003;42935;50.966;16.992;2023-03-23T00:30:32;45;34;23
57049;PMS7003;42935;50.966;16.992;2023-03-23T00:33:51;49;36;24
57049;PMS7003;42935;50.966;16.992;2023-03-23T00:37:17;43;35;22
57049;PMS7003;42935;50.966;16.992;2023-03-23T00:40:38;52;39;25
57049;PMS7003;42935;50.966;16.992;2023-03-23T00:43:59;42;34;23
57049;PMS7003;42935;50.966;16.992;2023-03-23T00:47:18;48;38;26
57049;PMS7003;42935;50.966;16.992;2023-03-23T00:50:48;50;39;25
57049;PMS7003;42935;50.966;16.992;2023-03-23T00:54:13;47;37;25
57049;PMS7003;42935;50.966;16.992;2023-03-23T00:57:38;48;38;24
57049;PMS7003;42935;50.966;16.992;2023-03-23T01:01:06;49;38;25
57049;PMS7003;42935;50.966;16.992;2023-03-23T01:04:31;44;34;22
57049;PMS7003;42935;50.966;16.992;2023-03-23T01:08:04;44;32;22
57049;PMS7003;42935;50.966;16.992;2023-03-23T01:11:26;44;35;23
57049;PMS7003;42935;50.966;16.992;2023-03-23T01:14:54;46;36;22
57049;PMS7003;42935;50.966;16.992;2023-03-23T01:18:14;43;33;23
57049;PMS7003;42935;50.966;16.992;2023-03-23T01:21:41;43;33;21
57049;PMS7003;42935;50.966;16.992;2023-03-23T01:25:08;42;33;22
57049;PMS7003;42935;50.966;16.992;2023-03-23T01:28:34;43;34;22
57049;PMS7003;42935;50.966;16.992;2023-03-23T01:31:54;39;32;23
57049;PMS7003;42935;50.966;16.992;2023-03-23T01:35:16;39;32;22
57049;PMS7003;42935;50.966;16.992;2023-03-23T01:38:44;41;32;21
57049;PMS7003;42935;50.966;16.992;2023-03-23T01:42:07;35;29;20
57049;PMS7003;42935;50.966;16.992;2023-03-23T01:45:37;32;27;18
57049;PMS7003;42935;50.966;16.992;2023-03-23T01:49:03;30;25;18
57049;PMS7003;42935;50.966;16.992;2023-03-23T01:52:31;33;27;18
57049;PMS7003;42935;50.966;16.992;2023-03-23T01:55:53;34;29;19
57049;PMS7003;42935;50.966;16.992;2023-03-23T01:59:16;32;28;19
57049;PMS7003;42935;50.966;16.992;2023-03-23T02:02:45;33;29;20
57049;PMS7003;42935;50.966;16.992;2023-03-23T02:06:10;35;29;20
57049;PMS7003;42935;50.966;16.992;2023-03-23T02:09:29;31;28;20
57049;PMS7003;42935;50.966;16.992;2023-03-23T02:12:50;36;28;20
57049;PMS7003;42935;50.966;16.992;2023-03-23T02:33:56;31;27;19
57049;PMS7003;42935;50.966;16.992;2023-03-23T02:40:48;27;26;19
57049;PMS7003;42935;50.966;16.992;2023-03-23T02:44:09;35;31;21
57049;PMS7003;42935;50.966;16.992;2023-03-23T02:47:35;36;27;19
57049;PMS7003;42935;50.966;16.992;2023-03-23T02:50:58;32;28;19
57049;PMS7003;42935;50.966;16.992;2023-03-23T02:54:16;28;26;18
57049;PMS7003;42935;50.966;16.992;2023-03-23T02:57:48;30;26;16
57049;PMS7003;42935;50.966;16.992;2023-03-23T03:12:12;27;22;16
57049;PMS7003;42935;50.966;16.992;2023-03-23T03:15:40;32;25;17
57049;PMS7003;42935;50.966;16.992;2023-03-23T03:19:06;23;20;15
57049;PMS7003;42935;50.966;16.992;2023-03-23T03:22:34;21;21;15
57049;PMS7003;42935;50.966;16.992;2023-03-23T03:25:56;29;21;14
57049;PMS7003;42935;50.966;16.992;2023-03-23T03:29:16;27;21;15
57049;PMS7003;42935;50.966;16.992;2023-03-23T03:32:44;26;20;15
57049;PMS7003;42935;50.966;16.992;2023-03-23T03:36:18;23;19;15
57049;PMS7003;42935;50.966;16.992;2023-03-23T03:39:45;18;17;12
57049;PMS7003;42935;50.966;16.992;2023-03-23T03:43:09;33;26;18
57049;PMS7003;42935;50.966;16.992;2023-03-23T03:46:37;26;22;15
57049;PMS7003;42935;50.966;16.992;2023-03-23T03:49:56;23;19;13
57049;PMS7003;42935;50.966;16.992;2023-03-23T03:53:21;23;21;15
57049;PMS7003;42935;50.966;16.992;2023-03-23T03:56:42;28;20;13
57049;PMS7003;42935;50.966;16.992;2023-03-23T04:00:06;29;24;16
57049;PMS7003;42935;50.966;16.992;2023-03-23T04:03:40;23;21;15
57049;PMS7003;42935;50.966;16.992;2023-03-23T04:06:57;22;19;14
57049;PMS7003;42935;50.966;16.992;2023-03-23T04:10:24;26;21;14
57049;PMS7003;42935;50.966;16.992;2023-03-23T04:13:50;27;20;15
57049;PMS7003;42935;50.966;16.992;2023-03-23T04:17:12;24;20;14
57049;PMS7003;42935;50.966;16.992;2023-03-23T04:20:36;33;29;19
57049;PMS7003;42935;50.966;16.992;2023-03-23T04:23:56;23;22;17
57049;PMS7003;42935;50.966;16.992;2023-03-23T04:27:25;31;26;18
57049;PMS7003;42935;50.966;16.992;2023-03-23T04:30:51;24;20;16
57049;PMS7003;42935;50.966;16.992;2023-03-23T04:34:10;25;20;16
57049;PMS7003;42935;50.966;16.992;2023-03-23T04:37:33;24;21;14
57049;PMS7003;42935;50.966;16.992;2023-03-23T04:40:55;29;25;18
57049;PMS7003;42935;50.966;16.992;2023-03-23T04:44:18;25;21;15
57049;PMS7003;42935;50.966;16.992;2023-03-23T04:47:36;25;20;14
57049;PMS7003;42935;50.966;16.992;2023-03-23T04:51:03;24;21;16
57049;PMS7003;42935;50.966;16.992;2023-03-23T04:54:22;21;19;14
57049;PMS7003;42935;50.966;16.992;2023-03-23T04:57:45;21;19;14
57049;PMS7003;42935;50.966;16.992;2023-03-23T05:01:06;22;19;12
57049;PMS7003;42935;50.966;16.992;2023-03-23T05:04:31;22;19;12
57049;PMS7003;42935;50.966;16.992;2023-03-23T05:07:50;26;20;15
57049;PMS7003;42935;50.966;16.992;2023-03-23T05:11:06;20;17;13
57049;PMS7003;42935;50.966;16.992;2023-03-23T05:14:33;22;19;14
57049;PMS7003;42935;50.966;16.992;2023-03-23T05:17:54;19;16;11
57049;PMS7003;42935;50.966;16.992;2023-03-23T05:21:15;19;16;12
57049;PMS7003;42935;50.966;16.992;2023-03-23T05:24:38;21;19;12
57049;PMS7003;42935;50.966;16.992;2023-03-23T05:28:03;24;18;13
57049;PMS7003;42935;50.966;16.992;2023-03-23T05:31:24;19;16;12
57049;PMS7003;42935;50.966;16.992;2023-03-23T05:34:40;15;14;10
57049;PMS7003;42935;50.966;16.992;2023-03-23T05:38:01;18;16;12
57049;PMS7003;42935;50.966;16.992;2023-03-23T05:41:27;18;16;11
57049;PMS7003;42935;50.966;16.992;2023-03-23T05:44:47;18;13;11
57049;PMS7003;42935;50.966;16.992;2023-03-23T05:48:08;18;16;12
57049;PMS7003;42935;50.966;16.992;2023-03-23T05:51:22;18;17;11
57049;PMS7003;42935;50.966;16.992;2023-03-23T05:54:43;19;16;11
57049;PMS7003;42935;50.966;16.992;2023-03-23T05:58:06;15;12;9
57049;PMS7003;42935;50.966;16.992;2023-03-23T06:01:54;16;14;11
57049;PMS7003;42935;50.966;16.992;2023-03-23T06:05:43;14;12;9
57049;PMS7003;42935;50.966;16.992;2023-03-23T06:09:00;15;12;10
57049;PMS7003;42935;50.966;16.992;2023-03-23T06:12:17;18;13;9
57049;PMS7003;42935;50.966;16.992;2023-03-23T06:15:39;18;13;10
57049;PMS7003;42935;50.966;16.992;2023-03-23T06:18:59;15;13;10
57049;PMS7003;42935;50.966;16.992;2023-03-23T06:22:19;18;11;8
57049;PMS7003;42935;50.966;16.992;2023-03-23T06:25:42;15;11;8
57049;PMS7003;42935;50.966;16.992;2023-03-23T06:29:06;14;12;9
57049;PMS7003;42935;50.966;16.992;2023-03-23T06:32:29;13;12;8
57049;PMS7003;42935;50.966;16.992;2023-03-23T06:35:52;14;13;10
57049;PMS7003;42935;50.966;16.992;2023-03-23T06:39:14;15;12;9
57049;PMS7003;42935;50.966;16.992;2023-03-23T06:42:30;13;12;9
57049;PMS7003;42935;50.966;16.992;2023-03-23T06:45:52;14;12;8
57049;PMS7003;42935;50.966;16.992;2023-03-23T06:49:12;16;13;10
57049;PMS7003;42935;50.966;16.992;2023-03-23T06:52:39;14;12;9
57049;PMS7003;42935;50.966;16.992;2023-03-23T06:56:00;19;15;11
57049;PMS7003;42935;50.966;16.992;2023-03-23T06:59:21;15;12;10
57049;PMS7003;42935;50.966;16.992;2023-03-23T07:02:42;16;14;10
57049;PMS7003;42935;50.966;16.992;2023-03-23T07:06:00;19;15;11
57049;PMS7003;42935;50.966;16.992;2023-03-23T07:09:21;15;13;10
57049;PMS7003;42935;50.966;16.992;2023-03-23T07:12:42;17;15;11
57049;PMS7003;42935;50.966;16.992;2023-03-23T07:16:06;13;13;9
57049;PMS7003;42935;50.966;16.992;2023-03-23T07:19:25;16;13;10
57049;PMS7003;42935;50.966;16.992;2023-03-23T07:22:49;14;11;9
57049;PMS7003;42935;50.966;16.992;2023-03-23T07:26:10;16;14;10
57049;PMS7003;42935;50.966;16.992;2023-03-23T07:29:26;14;12;9
57049;PMS7003;42935;50.966;16.992;2023-03-23T07:32:44;13;10;7
57049;PMS7003;42935;50.966;16.992;2023-03-23T07:36:06;17;12;8
57049;PMS7003;42935;50.966;16.992;2023-03-23T07:39:27;18;11;9
57049;PMS7003;42935;50.966;16.992;2023-03-23T07:42:46;15;11;8
57049;PMS7003;42935;50.966;16.992;2023-03-23T07:46:11;15;11;7
57049;PMS7003;42935;50.966;16.992;2023-03-23T07:49:29;14;12;9
57049;PMS7003;42935;50.966;16.992;2023-03-23T07:52:53;15;12;8
57049;PMS7003;42935;50.966;16.992;2023-03-23T07:56:12;12;10;8
57049;PMS7003;42935;50.966;16.992;2023-03-23T08:00:05;12;11;7
57049;PMS7003;42935;50.966;16.992;2023-03-23T08:04:06;17;12;8
57049;PMS7003;42935;50.966;16.992;2023-03-23T08:07:27;13;10;7
57049;PMS7003;42935;50.966;16.992;2023-03-23T08:10:51;14;11;8
57049;PMS7003;42935;50.966;16.992;2023-03-23T08:14:12;12;11;8
57049;PMS7003;42935;50.966;16.992;2023-03-23T08:17:34;21;16;10
57049;PMS7003;42935;50.966;16.992;2023-03-23T08:21:27;20;18;13
57049;PMS7003;42935;50.966;16.992;2023-03-23T08:24:45;16;12;8
57049;PMS7003;42935;50.966;16.992;2023-03-23T08:28:04;14;10;8
57049;PMS7003;42935;50.966;16.992;2023-03-23T08:31:24;9;8;6
57049;PMS7003;42935;50.966;16.992;2023-03-23T08:34:43;9;8;6
57049;PMS7003;42935;50.966;16.992;2023-03-23T08:37:59;13;10;7
57049;PMS7003;42935;50.966;16.992;2023-03-23T08:41:17;9;9;6
57049;PMS7003;42935;50.966;16.992;2023-03-23T08:44:39;11;7;5
57049;PMS7003;42935;50.966;16.992;2023-03-23T08:47:55;7;6;4
57049;PMS7003;42935;50.966;16.992;2023-03-23T08:51:46;10;8;5
57049;PMS7003;42935;50.966;16.992;2023-03-23T08:55:04;8;6;5
57049;PMS7003;42935;50.966;16.992;2023-03-23T08:58:23;10;8;6
57049;PMS7003;42935;50.966;16.992;2023-03-23T09:01:39;6;5;4
57049;PMS7003;42935;50.966;16.992;2023-03-23T09:04:57;7;6;4
57049;PMS7003;42935;50.966;16.992;2023-03-23T09:08:17;6;4;3
57049;PMS7003;42935;50.966;16.992;2023-03-23T09:11:37;6;4;4
57049;PMS7003;42935;50.966;16.992;2023-03-23T09:15:11;5;5;4
57049;PMS7003;42935;50.966;16.992;2023-03-23T09:18:33;6;5;4
57049;PMS7003;42935;50.966;16.992;2023-03-23T09:21:54;4;4;3
57049;PMS7003;42935;50.966;16.992;2023-03-23T09:25:16;6;4;3
57049;PMS7003;42935;50.966;16.992;2023-03-23T09:28:39;4;3;3
57049;PMS7003;42935;50.966;16.992;2023-03-23T09:31:59;3;3;2
57049;PMS7003;42935;50.966;16.992;2023-03-23T09:35:19;3;2;2
57049;PMS7003;42935;50.966;16.992;2023-03-23T09:38:40;3;3;2
57049;PMS7003;42935;50.966;16.992;2023-03-23T09:49:18;5;4;2
57049;PMS7003;42935;50.966;16.992;2023-03-23T09:52:53;2;2;2
57049;PMS7003;42935;50.966;16.992;2023-03-23T09:56:46;4;4;3
57049;PMS7003;42935;50.966;16.992;2023-03-23T10:03:35;4;4;3
57049;PMS7003;42935;50.966;16.992;2023-03-23T10:07:20;4;4;3
57049;PMS7003;42935;50.966;16.992;2023-03-23T10:14:17;4;4;3
57049;PMS7003;42935;50.966;16.992;2023-03-23T10:21:16;5;4;3
57049;PMS7003;42935;50.966;16.992;2023-03-23T10:28:17;4;4;4
57049;PMS7003;42935;50.966;16.992;2023-03-23T10:31:48;4;3;3
57049;PMS7003;42935;50.966;16.992;2023-03-23T10:35:18;4;3;3
57049;PMS7003;42935;50.966;16.992;2023-03-23T10:38:45;4;3;3
57049;PMS7003;42935;50.966;16.992;2023-03-23T10:42:09;5;3;2
57049;PMS7003;42935;50.966;16.992;2023-03-23T10:45:31;5;3;2
57049;PMS7003;42935;50.966;16.992;2023-03-23T10:48:52;3;3;2
57049;PMS7003;42935;50.966;16.992;2023-03-23T10:52:13;2;2;1
57049;PMS7003;42935;50.966;16.992;2023-03-23T10:55:43;3;3;3
57049;PMS7003;42935;50.966;16.992;2023-03-23T11:02:37;4;3;2
57049;PMS7003;42935;50.966;16.992;2023-03-23T11:06:01;3;2;1
57049;PMS7003;42935;50.966;16.992;2023-03-23T11:12:57;2;2;2
57049;PMS7003;42935;50.966;16.992;2023-03-23T11:16:23;2;1;1
57049;PMS7003;42935;50.966;16.992;2023-03-23T11:20:20;3;2;2
57049;PMS7003;42935;50.966;16.992;2023-03-23T11:23:39;2;2;2
57049;PMS7003;42935;50.966;16.992;2023-03-23T11:27:01;5;3;2
57049;PMS7003;42935;50.966;16.992;2023-03-23T11:30:26;3;2;2
57049;PMS7003;42935;50.966;16.992;2023-03-23T11:33:48;3;2;2
57049;PMS7003;42935;50.966;16.992;2023-03-23T11:40:50;2;2;1
57049;PMS7003;42935;50.966;16.992;2023-03-23T11:44:14;3;2;1
57049;PMS7003;42935;50.966;16.992;2023-03-23T11:47:40;2;1;1
57049;PMS7003;42935;50.966;16.992;2023-03-23T11:51:10;4;3;2
57049;PMS7003;42935;50.966;16.992;2023-03-23T11:54:32;3;2;1
57049;PMS7003;42935;50.966;16.992;2023-03-23T11:57:55;4;3;2
57049;PMS7003;42935;50.966;16.992;2023-03-23T12:01:26;4;2;2
57049;PMS7003;42935;50.966;16.992;2023-03-23T12:15:25;4;3;2
57049;PMS7003;42935;50.966;16.992;2023-03-23T12:22:30;3;3;2
57049;PMS7003;42935;50.966;16.992;2023-03-23T12:33:09;3;3;2
57049;PMS7003;42935;50.966;16.992;2023-03-23T12:36:43;5;4;3
57049;PMS7003;42935;50.966;16.992;2023-03-23T12:47:46;6;6;4
57049;PMS7003;42935;50.966;16.992;2023-03-23T12:51:16;7;5;4
57049;PMS7003;42935;50.966;16.992;2023-03-23T13:01:46;5;5;3
57049;PMS7003;42935;50.966;16.992;2023-03-23T13:08:44;5;5;4
57049;PMS7003;42935;50.966;16.992;2023-03-23T13:12:11;6;6;4
57049;PMS7003;42935;50.966;16.992;2023-03-23T13:15:40;4;4;3
57049;PMS7003;42935;50.966;16.992;2023-03-23T13:22:40;7;6;4
57049;PMS7003;42935;50.966;16.992;2023-03-23T13:26:09;8;6;5
57049;PMS7003;42935;50.966;16.992;2023-03-23T13:29:44;7;6;4
57049;PMS7003;42935;50.966;16.992;2023-03-23T13:33:11;7;6;5
57049;PMS7003;42935;50.966;16.992;2023-03-23T13:36:37;6;5;3
57049;PMS7003;42935;50.966;16.992;2023-03-23T13:43:33;5;4;3
57049;PMS7003;42935;50.966;16.992;2023-03-23T13:46:55;7;5;4
57049;PMS7003;42935;50.966;16.992;2023-03-23T13:50:25;9;6;5
57049;PMS7003;42935;50.966;16.992;2023-03-23T13:53:45;7;6;5
57049;PMS7003;42935;50.966;16.992;2023-03-23T13:57:48;6;5;4
57049;PMS7003;42935;50.966;16.992;2023-03-23T14:04:35;7;4;4
57049;PMS7003;42935;50.966;16.992;2023-03-23T14:10:05;3;3;3
57049;PMS7003;42935;50.966;16.992;2023-03-23T14:14:02;6;5;4
57049;PMS7003;42935;50.966;16.992;2023-03-23T14:17:23;5;5;4
57049;PMS7003;42935;50.966;16.992;2023-03-23T14:20:50;6;5;4
57049;PMS7003;42935;50.966;16.992;2023-03-23T14:24:12;6;4;3
57049;PMS7003;42935;50.966;16.992;2023-03-23T14:27:40;6;6;4
57049;PMS7003;42935;50.966;16.992;2023-03-23T14:30:59;10;9;6
57049;PMS7003;42935;50.966;16.992;2023-03-23T14:34:18;9;8;6
57049;PMS7003;42935;50.966;16.992;2023-03-23T14:37:40;9;7;5
57049;PMS7003;42935;50.966;16.992;2023-03-23T14:41:04;11;6;5
57049;PMS7003;42935;50.966;16.992;2023-03-23T14:44:39;8;6;5
57049;PMS7003;42935;50.966;16.992;2023-03-23T14:47:58;6;5;4
57049;PMS7003;42935;50.966;16.992;2023-03-23T14:51:22;9;7;5
57049;PMS7003;42935;50.966;16.992;2023-03-23T14:54:40;9;6;5
57049;PMS7003;42935;50.966;16.992;2023-03-23T14:58:06;8;6;4
57049;PMS7003;42935;50.966;16.992;2023-03-23T15:01:30;7;7;6
57049;PMS7003;42935;50.966;16.992;2023-03-23T15:04:53;6;5;4
57049;PMS7003;42935;50.966;16.992;2023-03-23T15:08:23;9;7;5
57049;PMS7003;42935;50.966;16.992;2023-03-23T15:11:58;8;6;5
57049;PMS7003;42935;50.966;16.992;2023-03-23T15:15:23;8;7;6
57049;PMS7003;42935;50.966;16.992;2023-03-23T15:19:03;11;9;7
57049;PMS7003;42935;50.966;16.992;2023-03-23T15:22:23;9;8;6
57049;PMS7003;42935;50.966;16.992;2023-03-23T15:25:47;13;9;7
57049;PMS7003;42935;50.966;16.992;2023-03-23T15:29:12;11;8;7
57049;PMS7003;42935;50.966;16.992;2023-03-23T15:32:40;6;6;5
57049;PMS7003;42935;50.966;16.992;2023-03-23T15:39:40;8;7;6
57049;PMS7003;42935;50.966;16.992;2023-03-23T15:53:37;8;6;4
57049;PMS7003;42935;50.966;16.992;2023-03-23T15:56:58;6;6;5
57049;PMS7003;42935;50.966;16.992;2023-03-23T16:00:20;8;7;5
57049;PMS7003;42935;50.966;16.992;2023-03-23T16:07:12;10;6;4
57049;PMS7003;42935;50.966;16.992;2023-03-23T16:10:31;6;6;5
57049;PMS7003;42935;50.966;16.992;2023-03-23T16:13:56;7;5;5
57049;PMS7003;42935;50.966;16.992;2023-03-23T16:17:18;8;6;5
57049;PMS7003;42935;50.966;16.992;2023-03-23T16:20:35;7;6;5
57049;PMS7003;42935;50.966;16.992;2023-03-23T16:24:26;8;8;6
57049;PMS7003;42935;50.966;16.992;2023-03-23T16:27:46;13;9;7
57049;PMS7003;42935;50.966;16.992;2023-03-23T16:31:04;11;7;5
57049;PMS7003;42935;50.966;16.992;2023-03-23T16:34:21;9;8;7
57049;PMS7003;42935;50.966;16.992;2023-03-23T16:37:44;10;8;7
57049;PMS7003;42935;50.966;16.992;2023-03-23T16:41:06;20;15;11
57049;PMS7003;42935;50.966;16.992;2023-03-23T16:44:35;17;13;8
57049;PMS7003;42935;50.966;16.992;2023-03-23T16:47:56;10;6;5
57049;PMS7003;42935;50.966;16.992;2023-03-23T16:51:49;20;14;10
57049;PMS7003;42935;50.966;16.992;2023-03-23T16:55:10;16;14;9
57049;PMS7003;42935;50.966;16.992;2023-03-23T16:59:01;11;8;6
57049;PMS7003;42935;50.966;16.992;2023-03-23T17:02:18;6;5;4
57049;PMS7003;42935;50.966;16.992;2023-03-23T17:05:46;8;4;3
57049;PMS7003;42935;50.966;16.992;2023-03-23T17:09:42;6;5;4
57049;PMS7003;42935;50.966;16.992;2023-03-23T17:13:03;8;7;5
57049;PMS7003;42935;50.966;16.992;2023-03-23T17:16:23;6;6;5
57049;PMS7003;42935;50.966;16.992;2023-03-23T17:19:42;13;7;5
57049;PMS7003;42935;50.966;16.992;2023-03-23T17:23:04;6;4;3
57049;PMS7003;42935;50.966;16.992;2023-03-23T17:26:24;7;5;4
57049;PMS7003;42935;50.966;16.992;2023-03-23T17:29:45;9;5;4
57049;PMS7003;42935;50.966;16.992;2023-03-23T17:33:04;7;6;5
57049;PMS7003;42935;50.966;16.992;2023-03-23T17:36:20;6;6;5
57049;PMS7003;42935;50.966;16.992;2023-03-23T17:39:41;6;5;4
57049;PMS7003;42935;50.966;16.992;2023-03-23T17:43:01;5;5;4
57049;PMS7003;42935;50.966;16.992;2023-03-23T17:46:19;8;7;5
57049;PMS7003;42935;50.966;16.992;2023-03-23T17:49:37;13;10;7
57049;PMS7003;42935;50.966;16.992;2023-03-23T17:53:01;18;16;12
57049;PMS7003;42935;50.966;16.992;2023-03-23T17:56:22;17;14;12
57049;PMS7003;42935;50.966;16.992;2023-03-23T17:59:43;20;18;14
57049;PMS7003;42935;50.966;16.992;2023-03-23T18:03:11;24;20;14
57049;PMS7003;42935;50.966;16.992;2023-03-23T18:06:31;21;18;14
57049;PMS7003;42935;50.966;16.992;2023-03-23T18:09:56;25;20;14
57049;PMS7003;42935;50.966;16.992;2023-03-23T18:13:15;26;23;16
57049;PMS7003;42935;50.966;16.992;2023-03-23T18:16:33;30;23;14
57049;PMS7003;42935;50.966;16.992;2023-03-23T18:19:55;33;26;19
57049;PMS7003;42935;50.966;16.992;2023-03-23T18:23:19;39;31;20
57049;PMS7003;42935;50.966;16.992;2023-03-23T18:26:37;43;32;22
57049;PMS7003;42935;50.966;16.992;2023-03-23T18:29:55;42;32;21
57049;PMS7003;42935;50.966;16.992;2023-03-23T18:33:24;36;30;20
57049;PMS7003;42935;50.966;16.992;2023-03-23T18:36:48;24;21;15
57049;PMS7003;42935;50.966;16.992;2023-03-23T18:40:09;31;25;17
57049;PMS7003;42935;50.966;16.992;2023-03-23T18:43:35;24;20;14
57049;PMS7003;42935;50.966;16.992;2023-03-23T18:47:02;22;18;13
57049;PMS7003;42935;50.966;16.992;2023-03-23T18:50:23;23;17;13
57049;PMS7003;42935;50.966;16.992;2023-03-23T18:53:44;18;14;11
57049;PMS7003;42935;50.966;16.992;2023-03-23T18:57:43;19;18;12
57049;PMS7003;42935;50.966;16.992;2023-03-23T19:01:09;20;17;12
57049;PMS7003;42935;50.966;16.992;2023-03-23T19:04:31;19;15;11
57049;PMS7003;42935;50.966;16.992;2023-03-23T19:07:51;15;14;10
57049;PMS7003;42935;50.966;16.992;2023-03-23T19:11:13;21;15;11
57049;PMS7003;42935;50.966;16.992;2023-03-23T19:14:34;19;15;11
57049;PMS7003;42935;50.966;16.992;2023-03-23T19:17:58;21;19;12
57049;PMS7003;42935;50.966;16.992;2023-03-23T19:21:19;15;13;10
57049;PMS7003;42935;50.966;16.992;2023-03-23T19:24:44;24;19;11
57049;PMS7003;42935;50.966;16.992;2023-03-23T19:28:12;23;18;12
57049;PMS7003;42935;50.966;16.992;2023-03-23T19:31:33;16;16;12
57049;PMS7003;42935;50.966;16.992;2023-03-23T19:34:53;15;14;10
57049;PMS7003;42935;50.966;16.992;2023-03-23T19:38:20;19;15;11
57049;PMS7003;42935;50.966;16.992;2023-03-23T19:41:38;21;17;11
57049;PMS7003;42935;50.966;16.992;2023-03-23T19:44:58;19;16;13
57049;PMS7003;42935;50.966;16.992;2023-03-23T19:48:20;21;16;12
57049;PMS7003;42935;50.966;16.992;2023-03-23T19:51:39;24;20;14
57049;PMS7003;42935;50.966;16.992;2023-03-23T19:55:01;25;21;14
57049;PMS7003;42935;50.966;16.992;2023-03-23T19:58:21;22;19;13
57049;PMS7003;42935;50.966;16.992;2023-03-23T20:01:41;21;17;12
57049;PMS7003;42935;50.966;16.992;2023-03-23T20:05:00;16;13;10
57049;PMS7003;42935;50.966;16.992;2023-03-23T20:08:23;11;10;8
57049;PMS7003;42935;50.966;16.992;2023-03-23T20:11:43;18;14;10
57049;PMS7003;42935;50.966;16.992;2023-03-23T20:15:03;19;15;12
57049;PMS7003;42935;50.966;16.992;2023-03-23T20:18:24;16;14;10
57049;PMS7003;42935;50.966;16.992;2023-03-23T20:21:46;13;12;9
57049;PMS7003;42935;50.966;16.992;2023-03-23T20:25:05;11;11;9
57049;PMS7003;42935;50.966;16.992;2023-03-23T20:28:23;12;11;8
57049;PMS7003;42935;50.966;16.992;2023-03-23T20:31:47;12;11;9
57049;PMS7003;42935;50.966;16.992;2023-03-23T20:35:09;9;8;7
57049;PMS7003;42935;50.966;16.992;2023-03-23T20:38:28;8;8;6
57049;PMS7003;42935;50.966;16.992;2023-03-23T20:41:52;10;9;7
57049;PMS7003;42935;50.966;16.992;2023-03-23T20:45:16;11;9;7
57049;PMS7003;42935;50.966;16.992;2023-03-23T20:48:37;12;10;8
57049;PMS7003;42935;50.966;16.992;2023-03-23T20:52:03;12;9;6
57049;PMS7003;42935;50.966;16.992;2023-03-23T20:55:23;9;9;7
57049;PMS7003;42935;50.966;16.992;2023-03-23T20:58:40;7;6;5
57049;PMS7003;42935;50.966;16.992;2023-03-23T21:01:57;12;10;7
57049;PMS7003;42935;50.966;16.992;2023-03-23T21:05:17;8;8;5
57049;PMS7003;42935;50.966;16.992;2023-03-23T21:08:39;9;8;7
57049;PMS7003;42935;50.966;16.992;2023-03-23T21:12:01;7;7;6
57049;PMS7003;42935;50.966;16.992;2023-03-23T21:15:26;9;8;6
57049;PMS7003;42935;50.966;16.992;2023-03-23T21:18:42;8;7;5
57049;PMS7003;42935;50.966;16.992;2023-03-23T21:22:09;9;7;5
57049;PMS7003;42935;50.966;16.992;2023-03-23T21:25:30;7;7;6
57049;PMS7003;42935;50.966;16.992;2023-03-23T21:28:52;6;5;5
57049;PMS7003;42935;50.966;16.992;2023-03-23T21:32:19;9;7;6
57049;PMS7003;42935;50.966;16.992;2023-03-23T21:35:37;6;6;5
57049;PMS7003;42935;50.966;16.992;2023-03-23T21:38:55;8;7;6
57049;PMS7003;42935;50.966;16.992;2023-03-23T21:42:15;6;6;4
57049;PMS7003;42935;50.966;16.992;2023-03-23T21:45:35;8;6;5
57049;PMS7003;42935;50.966;16.992;2023-03-23T21:48:56;9;6;5
57049;PMS7003;42935;50.966;16.992;2023-03-23T21:52:14;13;8;7
57049;PMS7003;42935;50.966;16.992;2023-03-23T21:55:34;9;7;6
57049;PMS7003;42935;50.966;16.992;2023-03-23T21:58:53;9;7;5
57049;PMS7003;42935;50.966;16.992;2023-03-23T22:02:12;10;9;7
57049;PMS7003;42935;50.966;16.992;2023-03-23T22:05:38;11;10;9
57049;PMS7003;42935;50.966;16.992;2023-03-23T22:08:55;27;24;18
57049;PMS7003;42935;50.966;16.992;2023-03-23T22:12:16;7;6;5
57049;PMS7003;42935;50.966;16.992;2023-03-23T22:15:37;7;7;6
57049;PMS7003;42935;50.966;16.992;2023-03-23T22:18:56;7;6;5
57049;PMS7003;42935;50.966;16.992;2023-03-23T22:22:14;8;6;6
57049;PMS7003;42935;50.966;16.992;2023-03-23T22:25:38;8;8;6
57049;PMS7003;42935;50.966;16.992;2023-03-23T22:28:56;11;8;6
57049;PMS7003;42935;50.966;16.992;2023-03-23T22:32:13;10;9;7
57049;PMS7003;42935;50.966;16.992;2023-03-23T22:35:35;11;9;7
57049;PMS7003;42935;50.966;16.992;2023-03-23T22:38:56;11;8;7
57049;PMS7003;42935;50.966;16.992;2023-03-23T22:42:16;13;11;7
57049;PMS7003;42935;50.966;16.992;2023-03-23T22:45:38;11;10;8
57049;PMS7003;42935;50.966;16.992;2023-03-23T22:49:03;15;12;8
57049;PMS7003;42935;50.966;16.992;2023-03-23T22:52:20;11;11;8
57049;PMS7003;42935;50.966;16.992;2023-03-23T22:55:43;15;13;10
57049;PMS7003;42935;50.966;16.992;2023-03-23T22:59:01;15;14;10
57049;PMS7003;42935;50.966;16.992;2023-03-23T23:02:22;15;11;9
57049;PMS7003;42935;50.966;16.992;2023-03-23T23:05:47;13;11;7
57049;PMS7003;42935;50.966;16.992;2023-03-23T23:09:04;12;11;8
57049;PMS7003;42935;50.966;16.992;2023-03-23T23:12:27;12;9;6
57049;PMS7003;42935;50.966;16.992;2023-03-23T23:15:52;10;10;7
57049;PMS7003;42935;50.966;16.992;2023-03-23T23:19:16;11;8;6
57049;PMS7003;42935;50.966;16.992;2023-03-23T23:22:32;10;9;7
57049;PMS7003;42935;50.966;16.992;2023-03-23T23:25:49;9;8;6
57049;PMS7003;42935;50.966;16.992;2023-03-23T23:29:09;8;7;5
57049;PMS7003;42935;50.966;16.992;2023-03-23T23:32:23;22;15;12
57049;PMS7003;42935;50.966;16.992;2023-03-23T23:35:47;12;11;8
57049;PMS7003;42935;50.966;16.992;2023-03-23T23:39:08;12;8;7
57049;PMS7003;42935;50.966;16.992;2023-03-23T23:42:29;12;9;7
57049;PMS7003;42935;50.966;16.992;2023-03-23T23:45:49;13;11;8
57049;PMS7003;42935;50.966;16.992;2023-03-23T23:49:15;14;10;7
57049;PMS7003;42935;50.966;16.992;2023-03-23T23:52:48;13;11;8
57049;PMS7003;42935;50.966;16.992;2023-03-23T23:56:06;12;10;7
57049;PMS7003;42935;50.966;16.992;2023-03-23T23:59:23;9;8;7
